createdAt,value
2018-08-03T00:01:33.468Z,21.87
2018-08-03T00:04:02.704Z,21.86
2018-08-03T00:06:31.963Z,21.83
2018-08-03T00:09:01.201Z,21.79
2018-08-03T00:11:30.238Z,21.72
2018-08-03T00:13:59.530Z,21.73
2018-08-03T00:16:28.822Z,21.66
2018-08-03T00:18:58.129Z,21.70
2018-08-03T00:21:27.430Z,21.61
2018-08-03T00:23:56.685Z,21.53
2018-08-03T00:26:25.937Z,21.51
2018-08-03T00:28:55.213Z,21.49
2018-08-03T00:31:24.456Z,21.48
2018-08-03T00:33:53.703Z,21.47
2018-08-03T00:36:22.948Z,21.43
2018-08-03T00:38:52.216Z,21.47
2018-08-03T00:41:21.486Z,21.42
2018-08-03T00:43:50.878Z,21.36
2018-08-03T00:46:20.150Z,21.28
2018-08-03T00:48:49.601Z,21.28
2018-08-03T00:51:18.861Z,21.27
2018-08-03T00:53:48.216Z,21.26
2018-08-03T00:56:17.462Z,21.27
2018-08-03T00:58:46.840Z,21.28
2018-08-03T01:01:16.071Z,21.23
2018-08-03T01:03:45.280Z,21.17
2018-08-03T01:06:14.624Z,21.12
2018-08-03T01:08:44.935Z,21.13
2018-08-03T01:11:14.230Z,21.08
2018-08-03T01:13:43.491Z,21.01
2018-08-03T01:16:12.743Z,21.06
2018-08-03T01:18:42.022Z,21.00
2018-08-03T01:21:11.278Z,20.97
2018-08-03T01:23:40.586Z,20.96
2018-08-03T01:26:09.866Z,21.02
2018-08-03T01:28:39.146Z,21.00
2018-08-03T01:31:08.406Z,21.00
2018-08-03T01:33:37.659Z,20.90
2018-08-03T01:36:06.929Z,20.88
2018-08-03T01:38:36.195Z,20.84
2018-08-03T01:41:05.445Z,20.80
2018-08-03T01:43:34.713Z,20.78
2018-08-03T01:46:03.989Z,20.75
2018-08-03T01:48:33.289Z,20.76
2018-08-03T01:51:02.596Z,20.74
2018-08-03T01:53:31.882Z,20.74
2018-08-03T01:56:01.201Z,20.73
2018-08-03T01:58:30.466Z,20.74
2018-08-03T02:00:59.737Z,20.68
2018-08-03T02:03:29.018Z,20.64
2018-08-03T02:05:58.289Z,20.60
2018-08-03T02:08:27.615Z,20.67
2018-08-03T02:10:56.981Z,20.62
2018-08-03T02:13:26.310Z,20.60
2018-08-03T02:15:55.719Z,20.57
2018-08-03T02:18:25.067Z,20.57
2018-08-03T02:20:54.322Z,20.54
2018-08-03T02:23:23.614Z,20.55
2018-08-03T02:25:52.908Z,20.51
2018-08-03T02:28:22.197Z,20.48
2018-08-03T02:30:51.466Z,20.50
2018-08-03T02:33:20.739Z,20.51
2018-08-03T02:35:50.069Z,20.44
2018-08-03T02:38:19.330Z,20.42
2018-08-03T02:40:48.601Z,20.44
2018-08-03T02:43:17.888Z,20.42
2018-08-03T02:45:47.132Z,20.40
2018-08-03T02:48:16.437Z,20.43
2018-08-03T02:50:45.728Z,20.43
2018-08-03T02:53:14.990Z,20.35
2018-08-03T02:55:44.427Z,20.34
2018-08-03T02:58:13.719Z,20.34
2018-08-03T03:00:43.000Z,20.30
2018-08-03T03:03:12.278Z,20.30
2018-08-03T03:05:41.571Z,20.28
2018-08-03T03:08:10.878Z,20.26
2018-08-03T03:10:40.148Z,20.26
2018-08-03T03:13:09.420Z,20.19
2018-08-03T03:15:38.710Z,20.18
2018-08-03T03:18:08.010Z,20.18
2018-08-03T03:20:37.331Z,20.20
2018-08-03T03:23:06.566Z,20.19
2018-08-03T03:25:35.925Z,20.16
2018-08-03T03:28:05.237Z,20.08
2018-08-03T03:30:34.507Z,20.12
2018-08-03T03:33:03.954Z,20.13
2018-08-03T03:35:33.238Z,20.21
2018-08-03T03:38:02.629Z,20.22
2018-08-03T03:40:31.914Z,20.20
2018-08-03T03:43:01.193Z,20.15
2018-08-03T03:45:30.483Z,20.10
2018-08-03T03:47:59.750Z,20.06
2018-08-03T03:50:29.037Z,20.01
2018-08-03T03:52:58.303Z,20.04
2018-08-03T03:55:27.550Z,20.01
2018-08-03T03:57:56.889Z,20.01
2018-08-03T04:00:26.192Z,20.03
2018-08-03T04:02:55.461Z,20.09
2018-08-03T04:05:24.746Z,20.01
2018-08-03T04:07:54.003Z,19.94
2018-08-03T04:10:23.308Z,19.96
2018-08-03T04:12:52.623Z,19.91
2018-08-03T04:15:21.922Z,19.99
2018-08-03T04:17:51.182Z,19.97
2018-08-03T04:20:20.467Z,20.04
2018-08-03T04:22:49.724Z,20.08
2018-08-03T04:25:19.011Z,20.11
2018-08-03T04:27:48.334Z,20.15
2018-08-03T04:30:17.413Z,20.14
2018-08-03T04:32:46.726Z,20.23
2018-08-03T04:35:16.015Z,20.25
2018-08-03T04:37:45.366Z,20.30
2018-08-03T04:40:14.721Z,20.41
2018-08-03T04:42:44.014Z,20.47
2018-08-03T04:45:13.403Z,20.47
2018-08-03T04:47:42.686Z,20.50
2018-08-03T04:50:12.002Z,20.50
2018-08-03T04:52:41.270Z,20.58
2018-08-03T04:55:11.126Z,20.68
2018-08-03T04:57:40.405Z,20.66
2018-08-03T05:00:09.739Z,20.74
2018-08-03T05:02:39.052Z,20.76
2018-08-03T05:05:08.435Z,20.85
2018-08-03T05:07:37.760Z,20.86
2018-08-03T05:10:06.817Z,20.89
2018-08-03T05:12:36.419Z,20.96
2018-08-03T05:15:07.087Z,21.00
2018-08-03T05:17:36.557Z,21.06
2018-08-03T05:20:06.588Z,21.19
2018-08-03T05:22:35.915Z,21.55
2018-08-03T05:25:05.878Z,22.22
2018-08-03T05:27:35.191Z,22.64
2018-08-03T05:30:05.338Z,22.88
2018-08-03T05:32:34.662Z,23.11
2018-08-03T05:35:04.213Z,23.30
2018-08-03T05:37:33.386Z,23.52
2018-08-03T05:40:02.745Z,23.67
2018-08-03T05:42:32.049Z,23.81
2018-08-03T05:45:01.392Z,23.78
2018-08-03T05:47:30.943Z,24.04
2018-08-03T05:50:00.242Z,24.09
2018-08-03T05:52:29.574Z,24.62
2018-08-03T05:54:58.954Z,24.69
2018-08-03T05:57:28.314Z,24.55
2018-08-03T05:59:57.739Z,25.06
2018-08-03T06:02:27.035Z,25.02
2018-08-03T06:04:56.329Z,25.00
2018-08-03T06:07:25.609Z,24.64
2018-08-03T06:09:54.861Z,25.10
2018-08-03T06:12:24.202Z,24.59
2018-08-03T06:14:53.487Z,24.87
2018-08-03T06:17:22.807Z,24.86
2018-08-03T06:19:52.091Z,25.17
2018-08-03T06:22:21.405Z,24.82
2018-08-03T06:24:50.649Z,24.97
2018-08-03T06:27:20.091Z,25.52
2018-08-03T06:29:49.555Z,25.16
2018-08-03T06:32:18.793Z,25.26
2018-08-03T06:34:48.127Z,24.70
2018-08-03T06:37:17.467Z,25.40
2018-08-03T06:39:46.786Z,25.62
2018-08-03T06:42:16.109Z,25.68
2018-08-03T06:44:45.465Z,25.32
2018-08-03T06:47:14.566Z,25.56
2018-08-03T06:49:43.882Z,25.42
2018-08-03T06:52:13.349Z,25.54
2018-08-03T06:54:42.699Z,25.69
2018-08-03T06:57:12.092Z,26.06
2018-08-03T06:59:41.376Z,25.62
2018-08-03T07:02:10.802Z,25.36
2018-08-03T07:04:40.123Z,25.52
2018-08-03T07:07:09.444Z,25.65
2018-08-03T07:09:38.798Z,26.19
2018-08-03T07:12:08.155Z,26.34
2018-08-03T07:14:37.470Z,26.10
2018-08-03T07:17:07.149Z,26.49
2018-08-03T07:19:36.529Z,26.81
2018-08-03T07:22:05.850Z,27.15
2018-08-03T07:24:35.210Z,26.63
2018-08-03T07:27:04.266Z,26.86
2018-08-03T07:29:33.611Z,27.06
2018-08-03T07:32:02.847Z,27.48
2018-08-03T07:34:32.470Z,27.40
2018-08-03T07:37:01.867Z,27.23
2018-08-03T07:39:31.227Z,27.59
2018-08-03T07:42:00.539Z,27.51
2018-08-03T07:44:29.785Z,27.59
2018-08-03T07:46:59.037Z,27.41
2018-08-03T07:49:28.412Z,27.23
2018-08-03T07:51:57.841Z,27.84
2018-08-03T07:54:27.234Z,27.68
2018-08-03T07:56:57.383Z,28.22
2018-08-03T07:59:26.712Z,28.03
2018-08-03T08:01:55.998Z,28.33
2018-08-03T08:04:25.329Z,27.97
2018-08-03T08:06:54.608Z,27.93
2018-08-03T08:09:23.895Z,28.23
2018-08-03T08:11:54.176Z,28.26
2018-08-03T08:14:23.490Z,28.33
2018-08-03T08:16:52.753Z,28.82
2018-08-03T08:19:22.062Z,28.67
2018-08-03T08:21:51.364Z,28.64
2018-08-03T08:24:20.672Z,29.14
2018-08-03T08:26:49.962Z,29.36
2018-08-03T08:29:19.328Z,29.19
2018-08-03T08:31:48.661Z,28.85
2018-08-03T08:34:18.034Z,29.35
2018-08-03T08:36:47.290Z,29.11
2018-08-03T08:39:16.605Z,28.99
2018-08-03T08:41:45.889Z,29.33
2018-08-03T08:44:15.171Z,29.48
2018-08-03T08:46:44.490Z,29.36
2018-08-03T08:49:13.943Z,29.52
2018-08-03T08:51:43.199Z,29.59
2018-08-03T08:54:12.223Z,29.75
2018-08-03T08:56:41.513Z,29.73
2018-08-03T08:59:10.917Z,29.77
2018-08-03T09:01:40.308Z,29.63
2018-08-03T09:04:09.620Z,29.48
2018-08-03T09:06:38.982Z,30.08
2018-08-03T09:09:10.374Z,29.95
2018-08-03T09:11:40.068Z,30.10
2018-08-03T09:14:09.135Z,30.02
2018-08-03T09:16:38.466Z,30.04
2018-08-03T09:19:07.839Z,30.00
2018-08-03T09:21:37.188Z,30.08
2018-08-03T09:24:06.526Z,30.09
2018-08-03T09:26:35.872Z,30.50
2018-08-03T09:29:05.221Z,30.61
2018-08-03T09:31:35.601Z,30.68
2018-08-03T09:34:04.987Z,30.27
2018-08-03T09:36:34.596Z,30.30
2018-08-03T09:39:05.232Z,30.49
2018-08-03T09:41:34.694Z,30.31
2018-08-03T09:44:03.998Z,30.60
2018-08-03T09:46:33.454Z,30.78
2018-08-03T09:49:02.857Z,30.98
2018-08-03T09:51:32.174Z,30.77
2018-08-03T09:54:01.483Z,30.81
2018-08-03T09:56:30.987Z,31.12
2018-08-03T09:59:00.408Z,31.08
2018-08-03T10:01:29.786Z,31.08
2018-08-03T10:03:59.432Z,31.45
2018-08-03T10:06:28.773Z,31.40
2018-08-03T10:08:58.033Z,31.28
2018-08-03T10:11:27.408Z,31.54
2018-08-03T10:13:56.737Z,31.20
2018-08-03T10:16:26.145Z,31.56
2018-08-03T10:18:55.522Z,31.21
2018-08-03T10:21:24.911Z,31.25
2018-08-03T10:23:54.195Z,31.32
2018-08-03T10:26:23.674Z,31.85
2018-08-03T10:28:53.343Z,31.66
2018-08-03T10:31:22.808Z,31.50
2018-08-03T10:33:52.403Z,32.03
2018-08-03T10:36:21.750Z,31.55
2018-08-03T10:38:51.054Z,32.06
2018-08-03T10:41:20.417Z,31.86
2018-08-03T10:43:49.851Z,31.96
2018-08-03T10:46:19.255Z,31.93
2018-08-03T10:48:55.556Z,32.13
2018-08-03T10:51:24.886Z,31.90
2018-08-03T10:53:54.250Z,32.49
2018-08-03T10:56:23.702Z,32.59
2018-08-03T10:58:53.063Z,32.25
2018-08-03T11:01:22.614Z,32.51
2018-08-03T11:03:52.382Z,32.25
2018-08-03T11:06:21.716Z,31.82
2018-08-03T11:08:51.030Z,32.12
2018-08-03T11:11:21.226Z,32.59
2018-08-03T11:13:57.079Z,32.65
2018-08-03T11:16:26.379Z,32.14
2018-08-03T11:18:55.786Z,32.22
2018-08-03T11:21:25.142Z,32.58
2018-08-03T11:23:54.507Z,32.48
2018-08-03T11:26:23.875Z,32.99
2018-08-03T11:28:53.214Z,33.07
2018-08-03T11:31:23.645Z,32.97
2018-08-03T11:33:52.954Z,32.99
2018-08-03T11:36:22.283Z,33.22
2018-08-03T11:38:51.628Z,33.37
2018-08-03T11:41:20.946Z,32.73
2018-08-03T11:43:50.400Z,32.78
2018-08-03T11:46:19.863Z,33.25
2018-08-03T11:48:49.318Z,33.38
2018-08-03T11:51:18.758Z,33.59
2018-08-03T11:53:49.168Z,33.77
2018-08-03T11:56:18.652Z,33.66
2018-08-03T11:58:48.950Z,33.59
2018-08-03T12:01:18.070Z,32.68
2018-08-03T12:03:47.842Z,33.17
2018-08-03T12:06:17.194Z,33.69
2018-08-03T12:08:46.734Z,33.60
2018-08-03T12:11:16.168Z,34.00
2018-08-03T12:13:45.551Z,33.30
2018-08-03T12:16:15.045Z,33.89
2018-08-03T12:18:44.469Z,33.82
2018-08-03T12:21:13.777Z,33.74
2018-08-03T12:23:43.219Z,33.81
2018-08-03T12:26:12.909Z,34.20
2018-08-03T12:28:42.226Z,34.20
2018-08-03T12:31:11.569Z,34.82
2018-08-03T12:33:40.605Z,34.29
2018-08-03T12:36:09.976Z,34.21
2018-08-03T12:38:39.322Z,33.90
2018-08-03T12:41:08.671Z,33.40
2018-08-03T12:43:38.218Z,33.79
2018-08-03T12:46:07.566Z,34.57
2018-08-03T12:48:36.866Z,34.92
2018-08-03T12:51:06.209Z,34.62
2018-08-03T12:53:36.023Z,34.79
2018-08-03T12:56:05.375Z,34.52
2018-08-03T12:58:34.722Z,34.81
2018-08-03T13:01:04.060Z,34.85
2018-08-03T13:03:33.431Z,34.69
2018-08-03T13:06:02.767Z,34.93
2018-08-03T13:08:32.265Z,34.90
2018-08-03T13:11:01.448Z,34.02
2018-08-03T13:13:30.856Z,33.40
2018-08-03T13:16:00.145Z,32.82
2018-08-03T13:18:29.469Z,33.15
2018-08-03T13:20:58.871Z,32.73
2018-08-03T13:23:28.246Z,33.04
2018-08-03T13:25:57.667Z,33.83
2018-08-03T13:28:26.979Z,34.34
2018-08-03T13:30:56.359Z,34.20
2018-08-03T13:33:25.779Z,34.49
2018-08-03T13:35:55.184Z,34.46
2018-08-03T13:38:24.523Z,34.50
2018-08-03T13:40:54.027Z,34.19
2018-08-03T13:43:23.495Z,34.73
2018-08-03T13:45:52.645Z,34.53
2018-08-03T13:48:28.816Z,34.68
2018-08-03T13:50:58.222Z,34.74
2018-08-03T13:53:27.555Z,34.74
2018-08-03T13:55:57.065Z,34.73
2018-08-03T13:58:26.471Z,34.63
2018-08-03T14:01:13.059Z,35.19
2018-08-03T14:03:42.680Z,35.07
2018-08-03T14:06:12.087Z,36.10
2018-08-03T14:08:44.099Z,36.04
2018-08-03T14:11:13.938Z,35.47
2018-08-03T14:13:43.341Z,35.40
2018-08-03T14:16:13.039Z,34.79
2018-08-03T14:18:42.813Z,35.39
2018-08-03T14:21:12.306Z,35.76
2018-08-03T14:23:41.660Z,35.72
2018-08-03T14:26:11.033Z,35.44
2018-08-03T14:28:40.562Z,35.05
2018-08-03T14:31:09.682Z,34.83
2018-08-03T14:33:39.089Z,34.56
2018-08-03T14:36:08.485Z,35.11
2018-08-03T14:38:37.878Z,34.97
2018-08-03T14:41:07.415Z,35.15
2018-08-03T14:43:36.803Z,35.26
2018-08-03T14:46:06.183Z,35.59
2018-08-03T14:48:35.619Z,35.60
2018-08-03T14:51:05.162Z,35.45
2018-08-03T14:53:34.495Z,35.35
2018-08-03T14:56:03.935Z,35.25
2018-08-03T14:58:33.357Z,35.25
2018-08-03T15:01:02.941Z,35.26
2018-08-03T15:03:32.239Z,34.58
2018-08-03T15:06:01.670Z,33.76
2018-08-03T15:08:31.130Z,33.50
2018-08-03T15:11:00.517Z,33.23
2018-08-03T15:13:29.916Z,33.13
2018-08-03T15:15:58.988Z,33.26
2018-08-03T15:18:28.328Z,33.86
2018-08-03T15:20:57.701Z,34.04
2018-08-03T15:23:27.074Z,34.44
2018-08-03T15:25:56.471Z,34.46
2018-08-03T15:28:25.795Z,34.78
2018-08-03T15:30:55.160Z,34.70
2018-08-03T15:33:24.668Z,34.74
2018-08-03T15:35:54.420Z,34.70
2018-08-03T15:38:23.775Z,34.58
2018-08-03T15:40:53.170Z,34.40
2018-08-03T15:43:22.414Z,34.43
2018-08-03T15:45:51.745Z,34.33
2018-08-03T15:48:21.043Z,34.56
2018-08-03T15:50:50.410Z,34.47
2018-08-03T15:53:19.718Z,34.43
2018-08-03T15:55:49.064Z,34.75
2018-08-03T15:58:18.347Z,34.54
2018-08-03T16:00:47.710Z,34.46
2018-08-03T16:03:17.047Z,34.09
2018-08-03T16:05:46.336Z,33.93
2018-08-03T16:08:15.754Z,34.15
2018-08-03T16:10:45.040Z,34.21
2018-08-03T16:13:14.447Z,34.07
2018-08-03T16:15:43.565Z,34.15
2018-08-03T16:18:12.838Z,34.19
2018-08-03T16:20:42.119Z,34.06
2018-08-03T16:23:11.410Z,34.11
2018-08-03T16:25:40.753Z,34.18
2018-08-03T16:28:10.264Z,34.01
2018-08-03T16:30:39.594Z,33.95
2018-08-03T16:33:08.995Z,34.10
2018-08-03T16:35:38.388Z,34.01
2018-08-03T16:38:07.733Z,33.76
2018-08-03T16:40:37.146Z,33.76
2018-08-03T16:43:06.541Z,33.88
2018-08-03T16:45:35.855Z,33.75
2018-08-03T16:48:05.254Z,33.70
2018-08-03T16:50:34.757Z,33.66
2018-08-03T16:53:04.124Z,33.57
2018-08-03T16:55:33.470Z,33.46
2018-08-03T16:58:02.766Z,33.28
2018-08-03T17:00:32.065Z,33.37
2018-08-03T17:03:01.487Z,33.99
2018-08-03T17:05:30.867Z,34.93
2018-08-03T17:08:00.238Z,35.64
2018-08-03T17:10:29.685Z,36.18
2018-08-03T17:12:59.035Z,35.87
2018-08-03T17:15:28.367Z,36.50
2018-08-03T17:17:58.906Z,36.85
2018-08-03T17:20:28.844Z,36.54
2018-08-03T17:22:58.387Z,36.21
2018-08-03T17:25:28.347Z,36.54
2018-08-03T17:27:58.013Z,36.82
2018-08-03T17:30:27.427Z,36.79
2018-08-03T17:32:56.816Z,36.50
2018-08-03T17:35:26.276Z,36.51
2018-08-03T17:37:55.633Z,36.28
2018-08-03T17:40:24.951Z,35.44
2018-08-03T17:42:54.301Z,34.60
2018-08-03T17:45:23.718Z,33.74
2018-08-03T17:47:53.085Z,33.38
2018-08-03T17:50:22.378Z,33.26
2018-08-03T17:52:51.783Z,33.27
2018-08-03T17:55:21.063Z,33.06
2018-08-03T17:57:50.468Z,32.79
2018-08-03T18:00:20.027Z,32.64
2018-08-03T18:02:49.510Z,32.31
2018-08-03T18:05:19.047Z,32.20
2018-08-03T18:07:48.400Z,32.35
2018-08-03T18:10:18.092Z,32.61
2018-08-03T18:12:47.362Z,32.86
2018-08-03T18:15:16.863Z,32.88
2018-08-03T18:17:46.180Z,32.44
2018-08-03T18:20:15.667Z,32.00
2018-08-03T18:22:45.008Z,31.67
2018-08-03T18:25:14.370Z,31.77
2018-08-03T18:27:43.733Z,31.75
2018-08-03T18:30:13.069Z,31.47
2018-08-03T18:32:42.404Z,31.31
2018-08-03T18:35:11.670Z,31.25
2018-08-03T18:37:41.038Z,30.94
2018-08-03T18:40:11.087Z,30.60
2018-08-03T18:42:40.708Z,30.35
2018-08-03T18:45:10.078Z,30.13
2018-08-03T18:47:39.447Z,29.87
2018-08-03T18:50:08.822Z,29.66
2018-08-03T18:52:38.233Z,29.49
2018-08-03T18:55:07.657Z,29.25
2018-08-03T18:57:36.986Z,29.05
2018-08-03T19:00:06.999Z,28.90
2018-08-03T19:02:36.339Z,28.71
2018-08-03T19:05:07.030Z,28.56
2018-08-03T19:07:36.524Z,28.42
2018-08-03T19:10:05.900Z,28.32
2018-08-03T19:12:35.147Z,28.14
2018-08-03T19:15:04.639Z,28.08
2018-08-03T19:17:33.914Z,27.97
2018-08-03T19:20:03.415Z,27.85
2018-08-03T19:22:32.692Z,27.72
2018-08-03T19:25:02.099Z,27.69
2018-08-03T19:27:31.422Z,27.63
2018-08-03T19:30:00.792Z,27.54
2018-08-03T19:32:30.115Z,27.45
2018-08-03T19:34:59.342Z,27.34
2018-08-03T19:37:29.418Z,27.31
2018-08-03T19:39:58.777Z,27.25
2018-08-03T19:42:28.167Z,27.15
2018-08-03T19:44:57.476Z,27.02
2018-08-03T19:47:27.043Z,26.94
2018-08-03T19:49:56.327Z,26.90
2018-08-03T19:52:25.855Z,26.86
2018-08-03T19:54:55.122Z,26.78
2018-08-03T19:57:24.385Z,26.69
2018-08-03T19:59:53.748Z,26.68
2018-08-03T20:02:23.039Z,26.62
2018-08-03T20:04:52.342Z,26.56
2018-08-03T20:07:22.215Z,26.61
2018-08-03T20:09:51.474Z,26.45
2018-08-03T20:12:20.758Z,26.45
2018-08-03T20:14:50.059Z,26.42
2018-08-03T20:17:19.081Z,26.37
2018-08-03T20:19:48.287Z,26.24
2018-08-03T20:22:18.886Z,26.16
2018-08-03T20:24:48.285Z,26.16
2018-08-03T20:27:17.714Z,26.17
2018-08-03T20:29:47.074Z,26.13
2018-08-03T20:32:16.402Z,26.05
2018-08-03T20:34:45.828Z,26.03
2018-08-03T20:37:15.115Z,25.96
2018-08-03T20:39:44.461Z,25.96
2018-08-03T20:42:13.738Z,25.93
2018-08-03T20:44:43.092Z,25.91
2018-08-03T20:47:12.400Z,25.77
2018-08-03T20:49:41.790Z,25.63
2018-08-03T20:52:11.138Z,25.59
2018-08-03T20:54:43.314Z,25.56
2018-08-03T20:57:12.618Z,25.46
2018-08-03T20:59:42.038Z,25.44
2018-08-03T21:02:11.344Z,25.39
2018-08-03T21:04:40.728Z,25.39
2018-08-03T21:07:09.999Z,25.30
2018-08-03T21:09:39.314Z,25.22
2018-08-03T21:12:08.744Z,25.22
2018-08-03T21:14:38.087Z,25.08
2018-08-03T21:17:07.162Z,25.10
2018-08-03T21:19:36.498Z,25.03
2018-08-03T21:22:05.812Z,24.95
2018-08-03T21:24:40.276Z,24.90
2018-08-03T21:27:09.635Z,24.87
2018-08-03T21:29:39.321Z,24.83
2018-08-03T21:32:08.675Z,24.83
2018-08-03T21:34:38.011Z,24.75
2018-08-03T21:37:07.297Z,24.77
2018-08-03T21:39:36.837Z,24.81
2018-08-03T21:42:06.338Z,24.67
2018-08-03T21:44:35.784Z,24.64
2018-08-03T21:47:04.792Z,24.59
2018-08-03T21:49:34.049Z,24.58
2018-08-03T21:52:03.370Z,24.60
2018-08-03T21:54:32.641Z,24.62
2018-08-03T21:57:01.967Z,24.51
2018-08-03T21:59:31.263Z,24.38
2018-08-03T22:02:00.296Z,24.31
2018-08-03T22:04:29.526Z,24.34
2018-08-03T22:06:58.793Z,24.28
2018-08-03T22:09:27.782Z,24.26
2018-08-03T22:11:57.143Z,24.25
2018-08-03T22:14:26.362Z,24.22
2018-08-03T22:16:55.678Z,24.19
2018-08-03T22:19:24.931Z,24.15
2018-08-03T22:21:54.176Z,24.07
2018-08-03T22:24:23.533Z,24.10
2018-08-03T22:26:52.922Z,24.04
2018-08-03T22:29:22.283Z,24.05
2018-08-03T22:31:51.655Z,24.06
2018-08-03T22:34:21.013Z,24.08
2018-08-03T22:36:50.357Z,23.94
2018-08-03T22:39:19.819Z,23.83
2018-08-03T22:41:49.221Z,23.78
2018-08-03T22:44:18.529Z,23.76
2018-08-03T22:46:47.805Z,23.74
2018-08-03T22:49:16.849Z,23.74
2018-08-03T22:51:46.125Z,23.72
2018-08-03T22:54:15.380Z,23.66
2018-08-03T22:56:44.640Z,23.66
2018-08-03T22:59:13.954Z,23.66
2018-08-03T23:01:43.431Z,23.67
2018-08-03T23:04:12.693Z,23.70
2018-08-03T23:06:42.139Z,23.63
2018-08-03T23:09:11.343Z,23.58
2018-08-03T23:11:40.652Z,23.53
2018-08-03T23:14:09.878Z,23.46
2018-08-03T23:16:39.121Z,23.41
2018-08-03T23:19:08.426Z,23.49
2018-08-03T23:21:37.650Z,23.51
2018-08-03T23:24:06.966Z,23.47
2018-08-03T23:26:36.204Z,23.57
2018-08-03T23:29:05.213Z,23.57
2018-08-03T23:31:34.522Z,23.60
2018-08-03T23:34:03.829Z,23.62
2018-08-03T23:36:33.076Z,23.53
2018-08-03T23:39:02.310Z,23.46
2018-08-03T23:41:31.542Z,23.36
2018-08-03T23:44:00.818Z,23.29
2018-08-03T23:46:30.066Z,23.29
2018-08-03T23:48:59.310Z,23.30
2018-08-03T23:51:28.535Z,23.37
2018-08-03T23:53:57.801Z,23.33
2018-08-03T23:56:27.018Z,23.22
2018-08-03T23:58:56.241Z,23.15
